createdAt,value
2019-02-22T00:01:31.907Z,67.05
2019-02-22T00:04:02.035Z,74.10
2019-02-22T00:06:32.253Z,71.53
2019-02-22T00:09:02.575Z,75.78
2019-02-22T00:11:33.114Z,83.60
2019-02-22T00:14:03.022Z,74.03
2019-02-22T00:16:32.842Z,79.95
2019-02-22T00:19:02.939Z,84.62
2019-02-22T00:21:32.997Z,78.60
2019-02-22T00:24:03.374Z,73.72
2019-02-22T00:26:33.717Z,78.33
2019-02-22T00:29:03.928Z,78.07
2019-02-22T00:31:34.093Z,84.17
2019-02-22T00:34:04.091Z,83.55
2019-02-22T00:36:33.860Z,79.27
2019-02-22T00:39:05.343Z,76.80
2019-02-22T00:41:35.282Z,84.77
2019-02-22T00:44:05.501Z,81.72
2019-02-22T00:46:35.795Z,82.15
2019-02-22T00:49:06.413Z,75.75
2019-02-22T00:51:36.540Z,81.20
2019-02-22T00:54:07.230Z,81.60
2019-02-22T00:56:37.678Z,81.70
2019-02-22T00:59:07.418Z,76.55
2019-02-22T01:01:37.436Z,78.17
2019-02-22T01:04:08.268Z,88.30
2019-02-22T01:06:38.640Z,85.22
2019-02-22T01:09:09.576Z,88.55
2019-02-22T01:11:40.064Z,89.35
2019-02-22T01:14:10.149Z,89.47
2019-02-22T01:16:40.266Z,81.80
2019-02-22T01:19:14.882Z,82.85
2019-02-22T01:21:42.338Z,87.45
2019-02-22T01:24:12.840Z,79.67
2019-02-22T01:26:46.321Z,90.80
2019-02-22T01:29:16.657Z,92.47
2019-02-22T01:31:46.902Z,84.58
2019-02-22T01:34:17.134Z,80.50
2019-02-22T01:36:47.788Z,86.50
2019-02-22T01:39:18.375Z,89.05
2019-02-22T01:41:48.217Z,89.47
2019-02-22T01:44:22.728Z,88.50
2019-02-22T01:46:53.344Z,95.90
2019-02-22T01:49:23.769Z,90.15
2019-02-22T01:51:54.229Z,82.97
2019-02-22T01:54:24.549Z,97.57
2019-02-22T01:56:55.069Z,83.85
2019-02-22T01:59:25.206Z,87.08
2019-02-22T02:01:55.516Z,82.82
2019-02-22T02:04:26.993Z,78.92
2019-02-22T02:06:57.169Z,82.42
2019-02-22T02:09:27.747Z,90.35
2019-02-22T02:11:57.967Z,85.05
2019-02-22T02:14:28.303Z,88.52
2019-02-22T02:16:59.007Z,85.70
2019-02-22T02:19:29.238Z,94.40
2019-02-22T02:21:59.861Z,96.35
2019-02-22T02:24:29.986Z,87.37
2019-02-22T02:27:00.234Z,85.92
2019-02-22T02:29:30.470Z,80.45
2019-02-22T02:32:00.853Z,89.83
2019-02-22T02:34:31.424Z,83.12
2019-02-22T02:37:01.721Z,79.85
2019-02-22T02:39:32.220Z,82.25
2019-02-22T02:42:02.561Z,88.87
2019-02-22T02:44:32.934Z,84.40
2019-02-22T02:47:02.988Z,90.07
2019-02-22T02:49:32.969Z,89.80
2019-02-22T02:52:03.485Z,82.85
2019-02-22T02:54:33.343Z,84.03
2019-02-22T02:57:04.057Z,83.42
2019-02-22T02:59:34.413Z,88.05
2019-02-22T03:02:07.133Z,90.30
2019-02-22T03:04:38.054Z,87.12
2019-02-22T03:07:16.286Z,75.90
2019-02-22T03:09:47.923Z,77.90
2019-02-22T03:12:18.450Z,83.82
2019-02-22T03:14:48.858Z,80.15
2019-02-22T03:17:19.179Z,94.45
2019-02-22T03:19:49.432Z,85.67
2019-02-22T03:22:19.184Z,85.57
2019-02-22T03:24:53.507Z,90.55
2019-02-22T03:27:21.904Z,76.37
2019-02-22T03:29:54.117Z,85.72
2019-02-22T03:32:24.646Z,82.20
2019-02-22T03:34:54.837Z,77.90
2019-02-22T03:37:24.996Z,83.40
2019-02-22T03:40:01.449Z,79.75
2019-02-22T03:42:32.258Z,81.37
2019-02-22T03:45:05.887Z,81.72
2019-02-22T03:47:35.730Z,77.12
2019-02-22T03:50:05.923Z,85.38
2019-02-22T03:52:40.653Z,84.60
2019-02-22T03:55:10.936Z,72.35
2019-02-22T03:57:41.836Z,80.70
2019-02-22T04:00:11.891Z,76.02
2019-02-22T04:02:42.363Z,81.42
2019-02-22T04:05:12.945Z,78.50
2019-02-22T04:07:46.334Z,86.28
2019-02-22T04:10:18.099Z,76.70
2019-02-22T04:12:49.959Z,79.58
2019-02-22T04:15:22.324Z,73.97
2019-02-22T04:17:55.824Z,74.00
2019-02-22T04:20:25.907Z,72.20
2019-02-22T04:22:56.267Z,72.10
2019-02-22T04:25:35.585Z,70.60
2019-02-22T04:28:11.937Z,66.50
2019-02-22T04:30:42.873Z,64.00
2019-02-22T04:33:15.042Z,60.08
2019-02-22T04:35:45.877Z,66.72
2019-02-22T04:38:19.472Z,59.15
2019-02-22T04:40:53.212Z,63.35
2019-02-22T04:43:32.522Z,64.72
2019-02-22T04:46:05.124Z,72.60
2019-02-22T04:48:42.908Z,66.33
2019-02-22T04:51:19.369Z,69.87
2019-02-22T04:53:51.233Z,68.47
2019-02-22T04:56:21.768Z,66.07
2019-02-22T04:58:53.930Z,65.10
2019-02-22T05:01:24.116Z,62.85
2019-02-22T05:03:56.426Z,67.67
2019-02-22T05:06:27.050Z,63.28
2019-02-22T05:08:57.692Z,66.02
2019-02-22T05:11:28.596Z,63.45
2019-02-22T05:13:59.261Z,63.52
2019-02-22T05:16:29.696Z,64.20
2019-02-22T05:19:05.971Z,65.70
2019-02-22T05:21:39.456Z,61.13
2019-02-22T05:24:12.132Z,60.80
2019-02-22T05:26:45.452Z,59.83
2019-02-22T05:29:14.908Z,61.33
2019-02-22T05:31:44.491Z,64.25
2019-02-22T05:34:13.915Z,64.12
2019-02-22T05:36:44.283Z,57.88
2019-02-22T05:39:19.103Z,58.63
2019-02-22T05:41:45.499Z,60.50
2019-02-22T05:44:15.149Z,62.73
2019-02-22T05:46:45.018Z,63.77
2019-02-22T05:49:17.750Z,68.40
2019-02-22T05:51:47.488Z,66.07
2019-02-22T05:54:17.127Z,61.33
2019-02-22T05:56:47.010Z,59.18
2019-02-22T05:59:16.945Z,62.53
2019-02-22T06:01:46.825Z,62.27
2019-02-22T06:04:16.583Z,62.48
2019-02-22T06:06:46.369Z,59.45
2019-02-22T06:09:16.288Z,64.25
2019-02-22T06:11:46.173Z,59.58
2019-02-22T06:14:16.105Z,60.60
2019-02-22T06:16:46.769Z,60.92
2019-02-22T06:19:16.564Z,64.58
2019-02-22T06:21:46.538Z,64.42
2019-02-22T06:24:17.497Z,62.35
2019-02-22T06:26:47.406Z,60.67
2019-02-22T06:29:16.917Z,65.40
2019-02-22T06:31:46.650Z,61.02
2019-02-22T06:34:16.166Z,59.03
2019-02-22T06:36:46.223Z,57.65
2019-02-22T06:39:15.958Z,60.45
2019-02-22T06:41:45.622Z,57.53
2019-02-22T06:44:15.445Z,60.75
2019-02-22T06:46:45.089Z,60.80
2019-02-22T06:49:14.791Z,64.32
2019-02-22T06:51:44.483Z,56.80
2019-02-22T06:54:14.205Z,64.22
2019-02-22T06:56:43.914Z,55.58
2019-02-22T06:59:13.647Z,56.42
2019-02-22T07:01:43.239Z,52.55
2019-02-22T07:04:12.924Z,57.65
2019-02-22T07:06:42.441Z,52.27
2019-02-22T07:09:12.051Z,49.42
2019-02-22T07:11:52.417Z,50.10
2019-02-22T07:14:22.116Z,57.40
2019-02-22T07:16:51.568Z,54.15
2019-02-22T07:19:21.533Z,47.38
2019-02-22T07:21:53.004Z,52.50
2019-02-22T07:24:22.406Z,52.40
2019-02-22T07:26:52.089Z,54.45
2019-02-22T07:29:22.248Z,52.67
2019-02-22T07:31:52.176Z,50.88
2019-02-22T07:34:21.730Z,47.95
2019-02-22T07:36:51.742Z,51.70
2019-02-22T07:39:27.900Z,51.50
2019-02-22T07:41:52.647Z,54.70
2019-02-22T07:44:22.105Z,58.10
2019-02-22T07:46:51.905Z,58.48
2019-02-22T07:49:26.004Z,58.65
2019-02-22T07:51:55.725Z,58.92
2019-02-22T07:54:25.526Z,50.55
2019-02-22T07:56:55.048Z,45.65
2019-02-22T07:59:24.651Z,47.65
2019-02-22T08:01:54.564Z,49.53
2019-02-22T08:04:24.143Z,43.87
2019-02-22T08:06:53.729Z,44.15
2019-02-22T08:09:23.484Z,46.55
2019-02-22T08:11:53.243Z,43.33
2019-02-22T08:14:22.998Z,47.33
2019-02-22T08:16:52.505Z,47.35
2019-02-22T08:19:22.010Z,42.50
2019-02-22T08:21:51.918Z,42.60
2019-02-22T08:24:21.680Z,43.37
2019-02-22T08:26:51.321Z,44.48
2019-02-22T08:29:22.161Z,44.48
2019-02-22T08:31:51.705Z,41.92
2019-02-22T08:34:21.284Z,40.60
2019-02-22T08:36:50.843Z,41.58
2019-02-22T08:39:20.302Z,42.27
2019-02-22T08:41:50.204Z,43.80
2019-02-22T08:44:19.938Z,39.23
2019-02-22T08:46:49.617Z,46.60
2019-02-22T08:49:19.127Z,45.60
2019-02-22T08:51:48.523Z,46.70
2019-02-22T08:54:18.127Z,45.48
2019-02-22T08:56:47.960Z,40.40
2019-02-22T08:59:17.600Z,40.55
2019-02-22T09:01:47.599Z,43.50
2019-02-22T09:04:17.274Z,44.90
2019-02-22T09:06:47.149Z,40.40
2019-02-22T09:09:16.787Z,41.90
2019-02-22T09:11:46.402Z,45.47
2019-02-22T09:14:16.038Z,39.75
2019-02-22T09:16:45.682Z,39.60
2019-02-22T09:19:15.318Z,40.65
2019-02-22T09:21:44.963Z,39.40
2019-02-22T09:24:14.427Z,42.17
2019-02-22T09:26:43.931Z,36.30
2019-02-22T09:29:13.639Z,39.58
2019-02-22T09:31:43.756Z,41.67
2019-02-22T09:34:13.399Z,40.63
2019-02-22T09:36:43.082Z,41.15
2019-02-22T09:39:12.701Z,38.20
2019-02-22T09:41:42.442Z,37.10
2019-02-22T09:44:12.003Z,39.98
2019-02-22T09:46:41.696Z,38.70
2019-02-22T09:49:11.303Z,37.90
2019-02-22T09:51:41.321Z,38.90
2019-02-22T09:54:11.039Z,35.43
2019-02-22T09:56:40.576Z,36.23
2019-02-22T09:59:10.144Z,40.53
2019-02-22T10:01:39.928Z,43.63
2019-02-22T10:04:09.554Z,31.47
2019-02-22T10:06:39.200Z,31.47
2019-02-22T10:09:08.659Z,35.83
2019-02-22T10:11:38.717Z,35.20
2019-02-22T10:14:08.476Z,37.43
2019-02-22T10:16:38.196Z,29.30
2019-02-22T10:19:07.929Z,32.80
2019-02-22T10:21:37.637Z,29.30
2019-02-22T10:24:07.397Z,30.40
2019-02-22T10:26:37.155Z,34.37
2019-02-22T10:29:06.739Z,30.30
2019-02-22T10:31:36.435Z,27.27
2019-02-22T10:34:06.215Z,28.43
2019-02-22T10:36:44.792Z,22.13
2019-02-22T10:39:07.318Z,24.30
2019-02-22T10:41:37.022Z,21.47
2019-02-22T10:44:17.077Z,22.60
2019-02-22T10:46:38.079Z,22.93
2019-02-22T10:49:08.237Z,23.43
2019-02-22T10:51:38.212Z,24.97
2019-02-22T10:54:08.332Z,25.73
2019-02-22T10:56:39.330Z,21.50
2019-02-22T10:59:09.194Z,23.07
2019-02-22T11:01:38.891Z,17.20
2019-02-22T11:04:08.718Z,17.20
2019-02-22T11:06:38.600Z,19.07
2019-02-22T11:09:08.527Z,20.77
2019-02-22T11:11:38.233Z,13.73
2019-02-22T11:14:07.995Z,12.70
2019-02-22T11:16:37.549Z,9.33
2019-02-22T11:19:07.403Z,6.60
2019-02-22T11:21:36.968Z,7.10
2019-02-22T11:24:06.918Z,6.00
2019-02-22T11:26:36.485Z,4.27
2019-02-22T11:29:06.319Z,7.30
2019-02-22T11:31:36.091Z,5.80
2019-02-22T11:34:06.074Z,6.07
2019-02-22T11:36:36.013Z,9.10
2019-02-22T11:39:06.734Z,10.90
2019-02-22T11:41:36.887Z,10.80
2019-02-22T11:44:06.612Z,7.43
2019-02-22T11:46:36.680Z,8.37
2019-02-22T11:49:06.316Z,6.87
2019-02-22T11:51:35.956Z,9.30
2019-02-22T11:54:05.478Z,8.93
2019-02-22T11:56:35.120Z,7.63
2019-02-22T11:59:04.849Z,10.30
2019-02-22T12:01:34.513Z,10.20
2019-02-22T12:04:04.394Z,10.40
2019-02-22T12:06:33.849Z,8.10
2019-02-22T12:09:04.752Z,8.10
2019-02-22T12:11:34.518Z,12.53
2019-02-22T12:14:04.516Z,10.20
2019-02-22T12:16:34.159Z,11.40
2019-02-22T12:19:03.674Z,11.17
2019-02-22T12:21:33.312Z,9.50
2019-02-22T12:24:03.197Z,11.37
2019-02-22T12:26:32.953Z,8.83
2019-02-22T12:29:02.591Z,12.87
2019-02-22T12:31:32.112Z,10.57
2019-02-22T12:34:01.992Z,12.10
2019-02-22T12:36:31.496Z,9.90
2019-02-22T12:39:01.102Z,9.47
2019-02-22T12:41:30.917Z,8.90
2019-02-22T12:44:00.677Z,8.77
2019-02-22T12:46:30.230Z,9.50
2019-02-22T12:48:59.861Z,8.47
2019-02-22T12:51:29.479Z,9.20
2019-02-22T12:53:59.353Z,11.60
2019-02-22T12:56:55.827Z,10.30
2019-02-22T12:59:00.494Z,9.00
2019-02-22T13:01:30.435Z,13.87
2019-02-22T13:03:59.929Z,13.80
2019-02-22T13:06:29.889Z,13.00
2019-02-22T13:08:59.446Z,13.30
2019-02-22T13:11:29.478Z,12.00
2019-02-22T13:13:59.236Z,10.53
2019-02-22T13:16:28.512Z,9.03
2019-02-22T13:18:58.157Z,12.33
2019-02-22T13:21:27.584Z,13.63
2019-02-22T13:23:57.493Z,12.17
2019-02-22T13:26:27.072Z,12.27
2019-02-22T13:28:56.528Z,12.73
2019-02-22T13:31:30.125Z,12.47
2019-02-22T13:33:57.556Z,10.90
2019-02-22T13:36:27.432Z,13.50
2019-02-22T13:38:57.248Z,16.10
2019-02-22T13:41:27.550Z,17.80
2019-02-22T13:43:57.550Z,12.87
2019-02-22T13:46:27.488Z,17.60
2019-02-22T13:48:57.438Z,14.40
2019-02-22T13:51:27.051Z,18.73
2019-02-22T13:53:56.560Z,25.53
2019-02-22T13:56:29.594Z,20.73
2019-02-22T13:58:57.105Z,18.43
2019-02-22T14:01:27.070Z,18.50
2019-02-22T14:03:56.515Z,18.43
2019-02-22T14:06:26.431Z,20.13
2019-02-22T14:08:56.113Z,24.93
2019-02-22T14:11:25.632Z,22.97
2019-02-22T14:13:55.512Z,32.27
2019-02-22T14:16:25.069Z,26.63
2019-02-22T14:18:55.034Z,27.87
2019-02-22T14:21:24.580Z,30.43
2019-02-22T14:23:54.193Z,26.70
2019-02-22T14:26:23.789Z,24.53
2019-02-22T14:28:53.351Z,27.67
2019-02-22T14:31:23.109Z,29.33
2019-02-22T14:33:52.611Z,23.20
2019-02-22T14:36:22.212Z,22.77
2019-02-22T14:38:52.269Z,20.23
2019-02-22T14:41:21.839Z,21.33
2019-02-22T14:43:51.747Z,20.70
2019-02-22T14:46:26.021Z,17.07
2019-02-22T14:48:52.496Z,16.07
2019-02-22T14:51:21.914Z,17.37
2019-02-22T14:53:51.514Z,14.77
2019-02-22T14:56:21.419Z,19.60
2019-02-22T14:58:51.330Z,17.30
2019-02-22T15:01:20.936Z,15.70
2019-02-22T15:03:50.833Z,15.00
2019-02-22T15:06:20.351Z,18.60
2019-02-22T15:08:50.062Z,22.50
2019-02-22T15:11:19.868Z,25.90
2019-02-22T15:13:49.602Z,21.53
2019-02-22T15:16:31.993Z,21.47
2019-02-22T15:19:02.009Z,23.00
2019-02-22T15:21:31.507Z,17.63
2019-02-22T15:24:01.754Z,23.37
2019-02-22T15:26:31.552Z,21.00
2019-02-22T15:29:01.392Z,25.40
2019-02-22T15:31:35.984Z,30.97
2019-02-22T15:34:02.234Z,26.63
2019-02-22T15:36:31.990Z,37.33
2019-02-22T15:39:01.659Z,32.80
2019-02-22T15:41:31.431Z,30.50
2019-02-22T15:44:01.276Z,32.37
2019-02-22T15:46:31.170Z,29.30
2019-02-22T15:49:00.891Z,34.90
2019-02-22T15:51:31.026Z,32.30
2019-02-22T15:54:01.162Z,31.53
2019-02-22T15:56:30.908Z,26.00
2019-02-22T15:59:00.670Z,31.23
2019-02-22T16:01:30.559Z,28.47
2019-02-22T16:04:08.228Z,32.27
2019-02-22T16:06:38.349Z,35.17
2019-02-22T16:09:09.077Z,33.10
2019-02-22T16:11:38.594Z,26.20
2019-02-22T16:14:08.391Z,31.30
2019-02-22T16:16:38.106Z,29.17
2019-02-22T16:19:07.991Z,33.50
2019-02-22T16:21:37.272Z,39.20
2019-02-22T16:24:06.714Z,55.70
2019-02-22T16:26:36.427Z,39.03
2019-02-22T16:29:06.441Z,30.07
2019-02-22T16:31:36.127Z,35.77
2019-02-22T16:34:06.190Z,38.07
2019-02-22T16:36:35.596Z,41.27
2019-02-22T16:39:06.686Z,39.27
2019-02-22T16:41:36.310Z,41.33
2019-02-22T16:44:06.188Z,37.87
2019-02-22T16:46:36.190Z,36.37
2019-02-22T16:49:06.152Z,39.83
2019-02-22T16:51:35.762Z,40.00
2019-02-22T16:54:05.470Z,39.00
2019-02-22T16:56:35.110Z,44.43
2019-02-22T16:59:04.680Z,42.03
2019-02-22T17:01:34.264Z,43.47
2019-02-22T17:04:04.041Z,38.57
2019-02-22T17:06:34.376Z,46.37
2019-02-22T17:09:05.465Z,40.80
2019-02-22T17:11:35.684Z,39.93
2019-02-22T17:14:05.285Z,43.70
2019-02-22T17:16:45.242Z,42.53
2019-02-22T17:19:06.799Z,42.13
2019-02-22T17:21:36.422Z,43.47
2019-02-22T17:24:06.550Z,45.00
2019-02-22T17:26:36.788Z,43.33
2019-02-22T17:29:06.911Z,45.93
2019-02-22T17:31:39.907Z,43.90
2019-02-22T17:34:10.153Z,43.03
2019-02-22T17:36:40.539Z,54.60
2019-02-22T17:39:10.629Z,47.83
2019-02-22T17:41:42.775Z,49.63
2019-02-22T17:44:12.250Z,50.30
2019-02-22T17:46:42.244Z,51.70
2019-02-22T17:49:12.281Z,52.23
2019-02-22T17:51:43.765Z,44.33
2019-02-22T17:54:14.051Z,58.13
2019-02-22T17:56:44.012Z,44.17
2019-02-22T17:59:13.881Z,54.60
2019-02-22T18:01:44.108Z,53.27
2019-02-22T18:04:14.114Z,49.17
2019-02-22T18:06:45.214Z,51.50
2019-02-22T18:09:15.639Z,51.80
2019-02-22T18:11:45.809Z,59.20
2019-02-22T18:14:15.864Z,63.13
2019-02-22T18:16:46.106Z,47.67
2019-02-22T18:19:16.281Z,48.10
2019-02-22T18:21:46.047Z,53.20
2019-02-22T18:24:16.168Z,47.17
2019-02-22T18:26:46.572Z,57.93
2019-02-22T18:29:16.369Z,49.30
2019-02-22T18:31:46.386Z,48.37
2019-02-22T18:34:16.405Z,48.37
2019-02-22T18:36:46.654Z,51.30
2019-02-22T18:39:16.589Z,54.87
2019-02-22T18:41:47.033Z,45.27
2019-02-22T18:44:17.227Z,55.80
2019-02-22T18:46:46.991Z,51.83
2019-02-22T18:49:17.032Z,52.87
2019-02-22T18:51:47.010Z,56.48
2019-02-22T18:54:17.102Z,53.73
2019-02-22T18:56:47.391Z,55.83
2019-02-22T18:59:17.524Z,56.93
2019-02-22T19:01:47.822Z,55.00
2019-02-22T19:04:18.195Z,62.93
2019-02-22T19:06:48.700Z,50.70
2019-02-22T19:09:18.803Z,52.10
2019-02-22T19:11:49.039Z,51.90
2019-02-22T19:14:18.765Z,51.85
2019-02-22T19:16:48.439Z,46.77
2019-02-22T19:19:18.422Z,47.62
2019-02-22T19:21:48.446Z,53.60
2019-02-22T19:24:18.513Z,53.87
2019-02-22T19:26:48.551Z,54.40
2019-02-22T19:29:18.842Z,49.63
2019-02-22T19:31:49.049Z,50.28
2019-02-22T19:34:19.387Z,56.48
2019-02-22T19:36:50.824Z,56.28
2019-02-22T19:39:21.484Z,50.52
2019-02-22T19:41:51.675Z,54.58
2019-02-22T19:44:22.155Z,53.45
2019-02-22T19:46:52.136Z,51.00
2019-02-22T19:49:22.625Z,56.85
2019-02-22T19:51:53.286Z,53.68
2019-02-22T19:54:23.225Z,49.08
2019-02-22T19:56:53.343Z,53.40
2019-02-22T19:59:23.828Z,55.23
2019-02-22T20:01:54.333Z,61.35
2019-02-22T20:04:24.895Z,52.17
2019-02-22T20:06:55.151Z,53.02
2019-02-22T20:09:25.221Z,47.23
2019-02-22T20:11:55.627Z,50.83
2019-02-22T20:14:25.753Z,48.60
2019-02-22T20:16:56.280Z,46.18
2019-02-22T20:19:26.474Z,55.00
2019-02-22T20:21:56.523Z,52.15
2019-02-22T20:24:26.727Z,46.65
2019-02-22T20:26:56.725Z,50.83
2019-02-22T20:29:26.227Z,53.23
2019-02-22T20:31:56.245Z,47.15
2019-02-22T20:34:26.465Z,52.60
2019-02-22T20:36:56.480Z,59.70
2019-02-22T20:39:26.647Z,52.03
2019-02-22T20:41:56.718Z,47.93
2019-02-22T20:44:26.871Z,51.25
2019-02-22T20:46:57.522Z,45.43
2019-02-22T20:49:27.532Z,46.13
2019-02-22T20:51:57.698Z,56.18
2019-02-22T20:54:28.380Z,49.27
2019-02-22T20:56:58.140Z,47.30
2019-02-22T20:59:28.197Z,51.35
2019-02-22T21:01:58.356Z,46.90
2019-02-22T21:04:28.351Z,44.35
2019-02-22T21:06:58.505Z,42.38
2019-02-22T21:09:28.711Z,47.53
2019-02-22T21:11:58.622Z,42.80
2019-02-22T21:14:28.430Z,42.25
2019-02-22T21:16:58.508Z,37.65
2019-02-22T21:19:28.621Z,41.53
2019-02-22T21:21:58.568Z,46.25
2019-02-22T21:24:28.414Z,42.17
2019-02-22T21:26:58.828Z,37.83
2019-02-22T21:29:29.236Z,44.75
2019-02-22T21:31:59.579Z,44.85
2019-02-22T21:34:29.577Z,38.25
2019-02-22T21:36:59.712Z,37.55
2019-02-22T21:39:29.703Z,37.67
2019-02-22T21:42:00.063Z,31.37
2019-02-22T21:44:30.600Z,35.73
2019-02-22T21:47:00.904Z,35.25
2019-02-22T21:49:31.460Z,39.88
2019-02-22T21:52:02.019Z,33.13
2019-02-22T21:54:32.222Z,28.62
2019-02-22T21:57:02.595Z,38.53
2019-02-22T21:59:32.761Z,31.70
2019-02-22T22:02:05.135Z,29.40
2019-02-22T22:04:35.736Z,35.38
2019-02-22T22:07:06.414Z,36.58
2019-02-22T22:09:36.822Z,34.80
2019-02-22T22:12:10.255Z,30.50
2019-02-22T22:14:40.652Z,31.33
2019-02-22T22:17:11.283Z,31.12
2019-02-22T22:19:41.709Z,29.40
2019-02-22T22:22:12.136Z,24.87
2019-02-22T22:24:42.424Z,26.00
2019-02-22T22:27:12.792Z,31.30
2019-02-22T22:29:43.275Z,27.70
2019-02-22T22:32:13.386Z,26.82
2019-02-22T22:34:43.634Z,29.05
2019-02-22T22:37:13.987Z,28.57
2019-02-22T22:39:44.156Z,29.75
2019-02-22T22:42:14.124Z,32.30
2019-02-22T22:44:45.071Z,28.23
2019-02-22T22:47:18.198Z,27.07
2019-02-22T22:49:48.684Z,27.80
2019-02-22T22:52:19.281Z,32.65
2019-02-22T22:54:49.826Z,32.73
2019-02-22T22:57:19.966Z,32.38
2019-02-22T22:59:50.497Z,26.27
2019-02-22T23:02:20.706Z,30.48
2019-02-22T23:04:50.938Z,28.92
2019-02-22T23:07:21.577Z,25.60
2019-02-22T23:09:52.047Z,36.25
2019-02-22T23:12:23.969Z,33.53
2019-02-22T23:14:54.311Z,37.20
2019-02-22T23:17:24.535Z,32.13
2019-02-22T23:19:57.196Z,29.25
2019-02-22T23:22:28.027Z,29.72
2019-02-22T23:24:58.656Z,31.35
2019-02-22T23:27:28.909Z,29.75
2019-02-22T23:29:59.323Z,33.25
2019-02-22T23:32:29.748Z,31.25
2019-02-22T23:35:00.297Z,30.72
2019-02-22T23:37:31.220Z,28.90
2019-02-22T23:40:02.055Z,41.65
2019-02-22T23:42:32.889Z,31.93
2019-02-22T23:45:03.629Z,29.77
2019-02-22T23:47:33.844Z,32.88
2019-02-22T23:50:04.792Z,33.92
2019-02-22T23:52:35.350Z,29.18
2019-02-22T23:55:05.643Z,31.00
2019-02-22T23:57:35.857Z,28.90
